sensor_id;sensor_type;location;lat;lon;timestamp;P1;durP1;ratioP1;P2;durP2;ratioP2
75071;SDS011;63651;55.728;38.022;2023-01-09T00:01:49;10.05;;;6.63;;
75071;SDS011;63651;55.728;38.022;2023-01-09T00:06:51;10.23;;;7.25;;
75071;SDS011;63651;55.728;38.022;2023-01-09T00:11:56;10.43;;;7.57;;
75071;SDS011;63651;55.728;38.022;2023-01-09T00:16:57;10.35;;;6.82;;
75071;SDS011;63651;55.728;38.022;2023-01-09T00:26:59;8.85;;;6.68;;
75071;SDS011;63651;55.728;38.022;2023-01-09T00:32:00;7.47;;;5.80;;
75071;SDS011;63651;55.728;38.022;2023-01-09T00:42:01;10.98;;;6.53;;
75071;SDS011;63651;55.728;38.022;2023-01-09T00:47:07;8.88;;;6.32;;
75071;SDS011;63651;55.728;38.022;2023-01-09T00:52:16;8.82;;;5.93;;
75071;SDS011;63651;55.728;38.022;2023-01-09T00:57:18;8.25;;;5.50;;
75071;SDS011;63651;55.728;38.022;2023-01-09T01:02:19;7.13;;;5.63;;
75071;SDS011;63651;55.728;38.022;2023-01-09T01:07:21;9.15;;;5.75;;
75071;SDS011;63651;55.728;38.022;2023-01-09T01:12:41;8.13;;;5.55;;
75071;SDS011;63651;55.728;38.022;2023-01-09T01:17:43;8.68;;;6.10;;
75071;SDS011;63651;55.728;38.022;2023-01-09T01:22:45;8.25;;;5.43;;
75071;SDS011;63651;55.728;38.022;2023-01-09T01:27:47;8.40;;;6.18;;
75071;SDS011;63651;55.728;38.022;2023-01-09T01:37:48;9.68;;;6.43;;
75071;SDS011;63651;55.728;38.022;2023-01-09T01:42:50;9.05;;;6.90;;
75071;SDS011;63651;55.728;38.022;2023-01-09T01:47:57;7.95;;;5.47;;
75071;SDS011;63651;55.728;38.022;2023-01-09T01:53:13;6.70;;;4.93;;
75071;SDS011;63651;55.728;38.022;2023-01-09T01:58:21;7.78;;;4.88;;
75071;SDS011;63651;55.728;38.022;2023-01-09T02:03:25;6.22;;;3.85;;
75071;SDS011;63651;55.728;38.022;2023-01-09T02:08:28;7.68;;;4.90;;
75071;SDS011;63651;55.728;38.022;2023-01-09T02:13:29;7.32;;;4.28;;
75071;SDS011;63651;55.728;38.022;2023-01-09T02:34:35;8.18;;;4.43;;
75071;SDS011;63651;55.728;38.022;2023-01-09T02:45:10;8.25;;;4.95;;
75071;SDS011;63651;55.728;38.022;2023-01-09T02:50:16;7.18;;;4.00;;
75071;SDS011;63651;55.728;38.022;2023-01-09T02:55:27;6.88;;;3.88;;
75071;SDS011;63651;55.728;38.022;2023-01-09T03:06:05;5.10;;;3.17;;
75071;SDS011;63651;55.728;38.022;2023-01-09T03:11:14;6.57;;;4.03;;
75071;SDS011;63651;55.728;38.022;2023-01-09T03:21:20;6.53;;;4.15;;
75071;SDS011;63651;55.728;38.022;2023-01-09T03:26:23;5.50;;;3.58;;
75071;SDS011;63651;55.728;38.022;2023-01-09T03:31:24;6.50;;;3.72;;
75071;SDS011;63651;55.728;38.022;2023-01-09T03:36:25;5.07;;;3.10;;
75071;SDS011;63651;55.728;38.022;2023-01-09T03:41:26;7.32;;;4.20;;
75071;SDS011;63651;55.728;38.022;2023-01-09T03:46:27;6.50;;;3.97;;
75071;SDS011;63651;55.728;38.022;2023-01-09T03:51:28;4.80;;;3.28;;
75071;SDS011;63651;55.728;38.022;2023-01-09T03:56:29;6.47;;;4.53;;
75071;SDS011;63651;55.728;38.022;2023-01-09T04:01:30;7.40;;;4.53;;
75071;SDS011;63651;55.728;38.022;2023-01-09T04:06:31;7.35;;;4.03;;
75071;SDS011;63651;55.728;38.022;2023-01-09T04:11:32;6.82;;;4.32;;
75071;SDS011;63651;55.728;38.022;2023-01-09T04:16:33;6.93;;;4.40;;
75071;SDS011;63651;55.728;38.022;2023-01-09T04:21:34;6.78;;;3.97;;
75071;SDS011;63651;55.728;38.022;2023-01-09T04:26:35;7.22;;;4.45;;
75071;SDS011;63651;55.728;38.022;2023-01-09T04:36:37;9.70;;;4.90;;
75071;SDS011;63651;55.728;38.022;2023-01-09T04:41:39;8.55;;;4.82;;
75071;SDS011;63651;55.728;38.022;2023-01-09T04:46:49;8.20;;;4.88;;
75071;SDS011;63651;55.728;38.022;2023-01-09T04:51:50;6.95;;;3.83;;
75071;SDS011;63651;55.728;38.022;2023-01-09T04:56:52;7.68;;;4.63;;
75071;SDS011;63651;55.728;38.022;2023-01-09T05:01:53;7.65;;;4.57;;
75071;SDS011;63651;55.728;38.022;2023-01-09T05:06:55;5.85;;;3.95;;
75071;SDS011;63651;55.728;38.022;2023-01-09T05:11:56;5.57;;;3.00;;
75071;SDS011;63651;55.728;38.022;2023-01-09T05:16:57;5.60;;;3.60;;
75071;SDS011;63651;55.728;38.022;2023-01-09T05:26:59;5.60;;;2.80;;
75071;SDS011;63651;55.728;38.022;2023-01-09T05:32:02;5.43;;;3.67;;
75071;SDS011;63651;55.728;38.022;2023-01-09T05:37:03;6.57;;;3.38;;
75071;SDS011;63651;55.728;38.022;2023-01-09T05:47:05;6.70;;;4.65;;
75071;SDS011;63651;55.728;38.022;2023-01-09T05:52:06;5.72;;;4.38;;
75071;SDS011;63651;55.728;38.022;2023-01-09T05:57:08;6.10;;;3.60;;
75071;SDS011;63651;55.728;38.022;2023-01-09T06:07:09;5.15;;;3.35;;
75071;SDS011;63651;55.728;38.022;2023-01-09T06:12:10;5.03;;;3.60;;
75071;SDS011;63651;55.728;38.022;2023-01-09T06:22:12;5.70;;;3.60;;
75071;SDS011;63651;55.728;38.022;2023-01-09T06:27:13;5.00;;;3.70;;
75071;SDS011;63651;55.728;38.022;2023-01-09T06:32:14;5.03;;;3.25;;
75071;SDS011;63651;55.728;38.022;2023-01-09T06:42:16;8.23;;;5.38;;
75071;SDS011;63651;55.728;38.022;2023-01-09T06:47:17;6.03;;;4.25;;
75071;SDS011;63651;55.728;38.022;2023-01-09T06:52:18;5.50;;;3.83;;
75071;SDS011;63651;55.728;38.022;2023-01-09T07:02:20;11.50;;;3.60;;
75071;SDS011;63651;55.728;38.022;2023-01-09T07:07:22;6.03;;;3.42;;
75071;SDS011;63651;55.728;38.022;2023-01-09T07:12:23;6.35;;;3.25;;
75071;SDS011;63651;55.728;38.022;2023-01-09T07:17:24;5.70;;;3.50;;
75071;SDS011;63651;55.728;38.022;2023-01-09T07:22:25;6.40;;;3.75;;
75071;SDS011;63651;55.728;38.022;2023-01-09T07:27:26;6.35;;;3.08;;
75071;SDS011;63651;55.728;38.022;2023-01-09T07:32:27;4.82;;;2.90;;
75071;SDS011;63651;55.728;38.022;2023-01-09T07:37:28;4.57;;;3.15;;
75071;SDS011;63651;55.728;38.022;2023-01-09T07:42:29;5.45;;;3.13;;
75071;SDS011;63651;55.728;38.022;2023-01-09T07:47:30;6.38;;;4.20;;
75071;SDS011;63651;55.728;38.022;2023-01-09T07:52:31;6.68;;;5.05;;
75071;SDS011;63651;55.728;38.022;2023-01-09T07:57:32;5.68;;;3.88;;
75071;SDS011;63651;55.728;38.022;2023-01-09T08:02:33;7.13;;;3.25;;
75071;SDS011;63651;55.728;38.022;2023-01-09T08:07:35;5.38;;;3.95;;
75071;SDS011;63651;55.728;38.022;2023-01-09T08:17:40;6.97;;;4.43;;
75071;SDS011;63651;55.728;38.022;2023-01-09T08:22:42;7.10;;;4.82;;
75071;SDS011;63651;55.728;38.022;2023-01-09T08:27:49;7.53;;;3.20;;
75071;SDS011;63651;55.728;38.022;2023-01-09T08:37:52;7.65;;;3.63;;
75071;SDS011;63651;55.728;38.022;2023-01-09T08:48:12;7.57;;;4.32;;
75071;SDS011;63651;55.728;38.022;2023-01-09T08:58:14;4.53;;;2.45;;
75071;SDS011;63651;55.728;38.022;2023-01-09T09:08:17;5.70;;;3.45;;
75071;SDS011;63651;55.728;38.022;2023-01-09T09:13:19;5.13;;;3.42;;
75071;SDS011;63651;55.728;38.022;2023-01-09T09:23:21;2.47;;;1.50;;
75071;SDS011;63651;55.728;38.022;2023-01-09T09:28:23;3.40;;;1.80;;
75071;SDS011;63651;55.728;38.022;2023-01-09T09:33:24;3.55;;;2.22;;
75071;SDS011;63651;55.728;38.022;2023-01-09T09:38:25;3.83;;;2.30;;
75071;SDS011;63651;55.728;38.022;2023-01-09T09:49:00;3.40;;;2.35;;
75071;SDS011;63651;55.728;38.022;2023-01-09T09:54:12;3.25;;;1.85;;
75071;SDS011;63651;55.728;38.022;2023-01-09T09:59:18;2.88;;;1.95;;
75071;SDS011;63651;55.728;38.022;2023-01-09T10:04:23;4.68;;;2.30;;
75071;SDS011;63651;55.728;38.022;2023-01-09T10:09:40;4.45;;;2.35;;
75071;SDS011;63651;55.728;38.022;2023-01-09T10:14:42;3.47;;;2.17;;
75071;SDS011;63651;55.728;38.022;2023-01-09T10:41:16;4.05;;;2.83;;
75071;SDS011;63651;55.728;38.022;2023-01-09T10:46:26;6.00;;;3.35;;
75071;SDS011;63651;55.728;38.022;2023-01-09T10:51:34;4.15;;;3.55;;
75071;SDS011;63651;55.728;38.022;2023-01-09T10:56:50;4.60;;;3.00;;
75071;SDS011;63651;55.728;38.022;2023-01-09T11:01:57;4.22;;;2.40;;
75071;SDS011;63651;55.728;38.022;2023-01-09T11:07:11;5.57;;;2.40;;
75071;SDS011;63651;55.728;38.022;2023-01-09T11:12:39;2.90;;;2.03;;
75071;SDS011;63651;55.728;38.022;2023-01-09T11:17:39;3.30;;;2.10;;
75071;SDS011;63651;55.728;38.022;2023-01-09T11:22:42;3.97;;;2.25;;
75071;SDS011;63651;55.728;38.022;2023-01-09T11:28:03;3.13;;;2.50;;
75071;SDS011;63651;55.728;38.022;2023-01-09T11:33:13;4.43;;;2.10;;
75071;SDS011;63651;55.728;38.022;2023-01-09T11:38:15;3.10;;;1.63;;
75071;SDS011;63651;55.728;38.022;2023-01-09T11:43:38;3.58;;;1.95;;
75071;SDS011;63651;55.728;38.022;2023-01-09T11:48:41;3.55;;;2.45;;
75071;SDS011;63651;55.728;38.022;2023-01-09T11:59:19;3.17;;;2.15;;
75071;SDS011;63651;55.728;38.022;2023-01-09T12:04:26;2.75;;;2.03;;
75071;SDS011;63651;55.728;38.022;2023-01-09T12:52:23;3.97;;;2.88;;
75071;SDS011;63651;55.728;38.022;2023-01-09T12:57:33;3.83;;;2.70;;
75071;SDS011;63651;55.728;38.022;2023-01-09T13:07:48;4.80;;;3.20;;
75071;SDS011;63651;55.728;38.022;2023-01-09T13:12:56;4.05;;;2.80;;
75071;SDS011;63651;55.728;38.022;2023-01-09T13:34:19;5.55;;;4.05;;
75071;SDS011;63651;55.728;38.022;2023-01-09T13:39:26;6.30;;;3.75;;
75071;SDS011;63651;55.728;38.022;2023-01-09T13:44:31;6.13;;;3.92;;
75071;SDS011;63651;55.728;38.022;2023-01-09T13:59:58;5.38;;;3.72;;
75071;SDS011;63651;55.728;38.022;2023-01-09T14:10:26;5.85;;;3.72;;
75071;SDS011;63651;55.728;38.022;2023-01-09T14:15:34;4.47;;;4.07;;
75071;SDS011;63651;55.728;38.022;2023-01-09T14:20:40;5.30;;;3.90;;
75071;SDS011;63651;55.728;38.022;2023-01-09T14:36:13;5.75;;;3.80;;
75071;SDS011;63651;55.728;38.022;2023-01-09T14:46:48;5.28;;;3.60;;
75071;SDS011;63651;55.728;38.022;2023-01-09T14:51:51;5.18;;;3.67;;
75071;SDS011;63651;55.728;38.022;2023-01-09T14:56:53;4.72;;;3.47;;
75071;SDS011;63651;55.728;38.022;2023-01-09T15:01:54;9.48;;;6.28;;
75071;SDS011;63651;55.728;38.022;2023-01-09T15:06:58;11.25;;;7.63;;
75071;SDS011;63651;55.728;38.022;2023-01-09T15:12:05;11.70;;;7.43;;
75071;SDS011;63651;55.728;38.022;2023-01-09T15:17:28;12.35;;;6.75;;
75071;SDS011;63651;55.728;38.022;2023-01-09T15:22:35;8.48;;;5.18;;
75071;SDS011;63651;55.728;38.022;2023-01-09T15:27:46;7.43;;;5.13;;
75071;SDS011;63651;55.728;38.022;2023-01-09T15:32:55;7.60;;;4.68;;
75071;SDS011;63651;55.728;38.022;2023-01-09T15:38:00;7.55;;;4.82;;
75071;SDS011;63651;55.728;38.022;2023-01-09T15:43:01;7.32;;;4.65;;
75071;SDS011;63651;55.728;38.022;2023-01-09T15:53:24;6.53;;;4.07;;
75071;SDS011;63651;55.728;38.022;2023-01-09T15:58:28;4.78;;;3.33;;
75071;SDS011;63651;55.728;38.022;2023-01-09T16:03:34;4.70;;;3.88;;
75071;SDS011;63651;55.728;38.022;2023-01-09T16:08:38;6.43;;;4.15;;
75071;SDS011;63651;55.728;38.022;2023-01-09T16:13:43;11.13;;;6.90;;
75071;SDS011;63651;55.728;38.022;2023-01-09T16:18:49;16.13;;;10.77;;
75071;SDS011;63651;55.728;38.022;2023-01-09T16:23:53;18.60;;;11.60;;
75071;SDS011;63651;55.728;38.022;2023-01-09T16:29:24;18.60;;;11.35;;
75071;SDS011;63651;55.728;38.022;2023-01-09T16:34:33;20.50;;;12.90;;
75071;SDS011;63651;55.728;38.022;2023-01-09T16:39:35;17.45;;;11.75;;
75071;SDS011;63651;55.728;38.022;2023-01-09T16:44:38;18.63;;;11.68;;
75071;SDS011;63651;55.728;38.022;2023-01-09T16:49:39;18.50;;;10.68;;
75071;SDS011;63651;55.728;38.022;2023-01-09T16:54:40;17.05;;;9.82;;
75071;SDS011;63651;55.728;38.022;2023-01-09T16:59:43;16.55;;;9.27;;
75071;SDS011;63651;55.728;38.022;2023-01-09T17:04:45;12.35;;;8.23;;
75071;SDS011;63651;55.728;38.022;2023-01-09T17:09:46;11.60;;;7.07;;
75071;SDS011;63651;55.728;38.022;2023-01-09T17:14:47;12.60;;;7.50;;
75071;SDS011;63651;55.728;38.022;2023-01-09T17:19:49;11.60;;;6.78;;
75071;SDS011;63651;55.728;38.022;2023-01-09T17:30:09;11.07;;;5.97;;
75071;SDS011;63651;55.728;38.022;2023-01-09T17:35:11;8.90;;;5.82;;
75071;SDS011;63651;55.728;38.022;2023-01-09T17:40:16;9.90;;;6.18;;
75071;SDS011;63651;55.728;38.022;2023-01-09T17:45:20;7.80;;;5.45;;
75071;SDS011;63651;55.728;38.022;2023-01-09T17:55:22;8.73;;;4.47;;
75071;SDS011;63651;55.728;38.022;2023-01-09T18:00:24;7.72;;;4.47;;
75071;SDS011;63651;55.728;38.022;2023-01-09T18:05:28;6.30;;;4.30;;
75071;SDS011;63651;55.728;38.022;2023-01-09T18:10:29;6.22;;;4.10;;
75071;SDS011;63651;55.728;38.022;2023-01-09T18:20:32;7.35;;;4.82;;
75071;SDS011;63651;55.728;38.022;2023-01-09T18:30:34;5.70;;;3.03;;
75071;SDS011;63651;55.728;38.022;2023-01-09T18:35:35;5.03;;;3.67;;
75071;SDS011;63651;55.728;38.022;2023-01-09T18:40:37;5.60;;;3.08;;
75071;SDS011;63651;55.728;38.022;2023-01-09T18:50:38;4.20;;;3.00;;
75071;SDS011;63651;55.728;38.022;2023-01-09T19:00:40;5.18;;;3.17;;
75071;SDS011;63651;55.728;38.022;2023-01-09T19:05:41;5.90;;;2.97;;
75071;SDS011;63651;55.728;38.022;2023-01-09T19:15:43;5.35;;;3.05;;
75071;SDS011;63651;55.728;38.022;2023-01-09T19:25:45;3.47;;;2.63;;
75071;SDS011;63651;55.728;38.022;2023-01-09T19:30:52;4.20;;;2.60;;
75071;SDS011;63651;55.728;38.022;2023-01-09T19:35:55;3.85;;;3.08;;
75071;SDS011;63651;55.728;38.022;2023-01-09T19:40:56;3.67;;;2.80;;
75071;SDS011;63651;55.728;38.022;2023-01-09T19:46:09;4.15;;;2.80;;
75071;SDS011;63651;55.728;38.022;2023-01-09T19:51:15;4.93;;;2.70;;
75071;SDS011;63651;55.728;38.022;2023-01-09T19:56:18;4.93;;;3.05;;
75071;SDS011;63651;55.728;38.022;2023-01-09T20:01:21;4.88;;;3.00;;
75071;SDS011;63651;55.728;38.022;2023-01-09T20:06:25;4.30;;;2.47;;
75071;SDS011;63651;55.728;38.022;2023-01-09T20:11:27;4.18;;;3.00;;
75071;SDS011;63651;55.728;38.022;2023-01-09T20:16:30;3.67;;;2.47;;
75071;SDS011;63651;55.728;38.022;2023-01-09T20:21:32;4.70;;;2.78;;
75071;SDS011;63651;55.728;38.022;2023-01-09T20:26:35;4.03;;;2.92;;
75071;SDS011;63651;55.728;38.022;2023-01-09T20:31:37;3.08;;;2.15;;
75071;SDS011;63651;55.728;38.022;2023-01-09T20:41:39;3.63;;;2.30;;
75071;SDS011;63651;55.728;38.022;2023-01-09T20:46:41;4.80;;;2.50;;
75071;SDS011;63651;55.728;38.022;2023-01-09T20:51:48;3.88;;;2.55;;
75071;SDS011;63651;55.728;38.022;2023-01-09T20:56:51;3.50;;;2.75;;
75071;SDS011;63651;55.728;38.022;2023-01-09T21:01:53;3.75;;;2.78;;
75071;SDS011;63651;55.728;38.022;2023-01-09T21:06:54;6.38;;;3.00;;
75071;SDS011;63651;55.728;38.022;2023-01-09T21:11:55;4.00;;;2.85;;
75071;SDS011;63651;55.728;38.022;2023-01-09T21:21:57;4.13;;;3.20;;
75071;SDS011;63651;55.728;38.022;2023-01-09T21:31:59;4.70;;;2.72;;
75071;SDS011;63651;55.728;38.022;2023-01-09T21:37:00;6.05;;;2.22;;
75071;SDS011;63651;55.728;38.022;2023-01-09T21:47:20;4.70;;;2.53;;
75071;SDS011;63651;55.728;38.022;2023-01-09T21:52:22;4.40;;;2.78;;
75071;SDS011;63651;55.728;38.022;2023-01-09T21:57:25;3.40;;;2.47;;
75071;SDS011;63651;55.728;38.022;2023-01-09T22:02:26;4.10;;;2.42;;
75071;SDS011;63651;55.728;38.022;2023-01-09T22:07:27;3.95;;;2.45;;
75071;SDS011;63651;55.728;38.022;2023-01-09T22:12:29;4.80;;;2.83;;
75071;SDS011;63651;55.728;38.022;2023-01-09T22:22:31;3.45;;;2.60;;
75071;SDS011;63651;55.728;38.022;2023-01-09T22:27:32;3.63;;;2.42;;
75071;SDS011;63651;55.728;38.022;2023-01-09T22:32:33;3.88;;;2.33;;
75071;SDS011;63651;55.728;38.022;2023-01-09T22:37:35;4.30;;;2.58;;
75071;SDS011;63651;55.728;38.022;2023-01-09T22:42:36;2.70;;;2.33;;
75071;SDS011;63651;55.728;38.022;2023-01-09T22:47:37;3.53;;;2.72;;
75071;SDS011;63651;55.728;38.022;2023-01-09T22:52:38;4.30;;;2.10;;
75071;SDS011;63651;55.728;38.022;2023-01-09T22:57:39;4.07;;;1.80;;
75071;SDS011;63651;55.728;38.022;2023-01-09T23:07:41;4.93;;;2.30;;
75071;SDS011;63651;55.728;38.022;2023-01-09T23:12:42;4.82;;;2.90;;
75071;SDS011;63651;55.728;38.022;2023-01-09T23:17:47;4.10;;;2.72;;
75071;SDS011;63651;55.728;38.022;2023-01-09T23:22:48;4.30;;;2.78;;
75071;SDS011;63651;55.728;38.022;2023-01-09T23:27:49;3.08;;;2.40;;
75071;SDS011;63651;55.728;38.022;2023-01-09T23:32:50;4.93;;;2.45;;
75071;SDS011;63651;55.728;38.022;2023-01-09T23:37:51;3.35;;;2.45;;
75071;SDS011;63651;55.728;38.022;2023-01-09T23:42:52;4.25;;;2.45;;
75071;SDS011;63651;55.728;38.022;2023-01-09T23:48:10;4.85;;;3.10;;
75071;SDS011;63651;55.728;38.022;2023-01-09T23:53:14;5.35;;;3.67;;
75071;SDS011;63651;55.728;38.022;2023-01-09T23:58:16;5.18;;;3.55;;
